AirNav   Pilot Hours Calculator
 
 1179 users online  

39TN Big Sandy Airpark
Big Sandy, Tennessee, USA

GOING TO BIG SANDY?


FAA INFORMATION EFFECTIVE 22 APRIL 2021

Location

FAA Identifier: 39TN
Lat/Long: 36-16-47.0000N 088-02-37.0000W
36-16.783333N 088-02.616667W
36.2797222,-88.0436111
(estimated)
Elevation: 632 ft. / 193 m (estimated)
From city: 5 miles NE of BIG SANDY, TN
Time zone: UTC -5 (UTC -6 during Standard Time)
Zip code: 38221

Airport Operations

Airport use: Private use. Permission required prior to landing
Activation date: 08/2005
Control tower: no
ARTCC: MEMPHIS CENTER
FSS: JACKSON FLIGHT SERVICE STATION
Attendance: UNATNDD
Wind indicator: yes
Segmented circle: no

Airport Communications

WX AWOS-3 at PHT (17 nm W): 118.825 (731-644-0451)

Nearby radio navigation aids

VOR radial/distance  VOR name  Freq  Var
CKVr237/36.7CLARKSVILLE VOR/DME110.6001W

 
NDB name  Hdg/Dist  Freq  Var  ID
TRAINER084/18.141000ETIQ - .. --.-
HUNTINGDON063/23.521702WHZD .... --.. -..

Airport Services

Runway Information

Runway 3/21

Dimensions: 3000 x 50 ft. / 914 x 15 m
Surface: turf
RUNWAY 3  RUNWAY 21
Traffic pattern: leftleft
Obstructions: 50 ft. trees50 ft. trees

Airport Ownership and Management from official FAA records

Ownership: Privately-owned
Owner: MIKE CHASE
26 FORKED OAK LANE
HUMBODT, TN 38343
Phone 731-618-1706
Manager: MIKE CHASE
26 FORKED OAK LANE
HUMBODT, TN 38343
Phone 731-618-1706

Airport Operational Statistics

Aircraft based on the field: 3
Single engine airplanes: 3
    

Additional Remarks

FOR CD CTC MEMPHIS ARTCC AT 901-368-8453/8449.

Instrument Procedures

There are no published instrument procedures at 39TN.

Some nearby airports with instrument procedures:

0M4 - Benton County Airport (17 nm S)
KPHT - Henry County Airport (17 nm W)
0M5 - Humphreys County Airport (18 nm SE)
KHZD - Carroll County Airport (23 nm SW)
KCEY - Kyle-Oakley Field Airport (28 nm NW)
 
Loc | Ops | Rwys | IFR | FBO | Links
Com | Nav | Svcs | Stats | Notes
Area around 39TN (Big Sandy Airpark)
 
Road maps at: MapQuest Bing Google
 
Aerial photo
No photo
 
Sectional chart

 
Airport distance calculator
Flying to Big Sandy Airpark? Find the distance to fly.

From to 39TN

Sunrise and sunset
Times for 15-May-2021
 Local
(UTC-5)
 Zulu
(UTC)
Morning civil twilight05:1810:18
Sunrise05:4710:47
Sunset19:5000:50
Evening civil twilight20:1901:19

Current date and time
Zulu (UTC)  15-May-2021 19:51:32
Local (UTC-5)  15-May-2021 14:51:32
 
METAR
KPHT 
17nm W 
151935Z AUTO VRB04KT 10SM CLR 24/06 A3018 RMK A01
KCEY 
28nm NW 
151935Z AUTO 23007KT 10SM CLR 24/04 A3019 RMK AO1
KM02 
31nm E 
151935Z AUTO VRB04KT 10SM 23/04 A3019 RMK A01
KEOD 
32nm NE 
151858Z AUTO 20006KT 10SM SCT140 23/04 A3019 RMK AO2 SLP224 T02340043
TAF
KHOP 
35nm NE 
151600Z 1516/1622 VRB06KT 9999 SCT050 QNH3017INS BECMG 1611/1612 VRB06KT 9999 BKN050 QNH3012INS TX24/1518Z TN13/1608Z
KCKV 
36nm NE 
151722Z 1518/1618 18007KT P6SM SCT100 FM160100 17003KT P6SM VCSH OVC100 FM161100 21006KT P6SM BKN060
NOTAMs
Click for the latest NOTAMs
NOTAMs are issued by the DoD/FAA and will open in a separate window not controlled by AirNav.

 

 
 

Would you like to see your business listed on this page?

 If your business provides an interesting product or service to pilots, flight crews, aircraft, or users of the Big Sandy Airpark, you should consider listing it here.  To start the listing process, click on the button below
 
Add a business
 

Other Pages about Big Sandy Airpark

Update a link
 
Copyright © AirNav, LLC. All rights reserved. Privacy Policy  Contact